createdAt,value
2022-11-17T00:28:11.197Z,100.00
2022-11-17T01:50:29.645Z,100.00
2022-11-17T02:26:10.948Z,100.00
2022-11-17T03:42:17.401Z,100.00
2022-11-17T03:44:51.123Z,100.00
2022-11-17T03:47:21.106Z,100.00
2022-11-17T03:50:06.312Z,100.00
2022-11-17T03:52:36.719Z,100.00
2022-11-17T03:55:06.605Z,100.00
2022-11-17T03:57:41.609Z,100.00
2022-11-17T04:00:12.851Z,100.00
2022-11-17T04:02:43.407Z,100.00
2022-11-17T04:05:12.723Z,100.00
2022-11-17T04:07:46.197Z,100.00
2022-11-17T04:10:19.782Z,100.00
2022-11-17T04:13:07.846Z,100.00
2022-11-17T04:15:54.486Z,100.00
2022-11-17T04:18:24.329Z,100.00
2022-11-17T04:20:56.016Z,100.00
2022-11-17T04:23:26.063Z,100.00
2022-11-17T04:26:15.237Z,100.00
2022-11-17T04:28:46.882Z,100.00
2022-11-17T04:31:27.083Z,100.00
2022-11-17T04:34:03.382Z,100.00
2022-11-17T04:36:35.375Z,100.00
2022-11-17T04:39:03.796Z,100.00
2022-11-17T04:41:50.441Z,100.00
2022-11-17T04:44:18.933Z,100.00
2022-11-17T04:46:47.150Z,100.00
2022-11-17T04:49:17.481Z,100.00
2022-11-17T04:51:46.213Z,100.00
2022-11-17T04:54:16.630Z,100.00
2022-11-17T04:56:45.399Z,100.00
2022-11-17T04:59:13.482Z,100.00
2022-11-17T05:01:41.650Z,100.00
2022-11-17T05:04:12.882Z,100.00
2022-11-17T05:06:43.267Z,100.00
2022-11-17T05:09:16.925Z,100.00
2022-11-17T05:12:03.781Z,100.00
2022-11-17T05:14:31.854Z,100.00
2022-11-17T05:17:10.965Z,100.00
2022-11-17T05:19:42.622Z,100.00
2022-11-17T05:22:30.950Z,100.00
2022-11-17T05:24:59.171Z,100.00
2022-11-17T05:27:27.438Z,100.00
2022-11-17T05:29:55.531Z,100.00
2022-11-17T05:32:23.530Z,100.00
2022-11-17T05:34:51.646Z,100.00
2022-11-17T05:37:19.591Z,100.00
2022-11-17T05:39:47.620Z,100.00
2022-11-17T05:42:15.725Z,100.00
2022-11-17T05:44:43.632Z,100.00
2022-11-17T05:47:11.630Z,100.00
2022-11-17T05:49:39.699Z,100.00
2022-11-17T05:52:08.192Z,100.00
2022-11-17T05:54:36.976Z,100.00
2022-11-17T05:57:14.411Z,100.00
2022-11-17T05:59:54.206Z,100.00
2022-11-17T06:02:26.873Z,100.00
2022-11-17T06:04:54.774Z,100.00
2022-11-17T06:07:22.934Z,100.00
2022-11-17T06:09:52.038Z,100.00
2022-11-17T06:12:19.993Z,100.00
2022-11-17T06:14:47.950Z,100.00
2022-11-17T06:17:31.031Z,100.00
2022-11-17T06:20:08.449Z,100.00
2022-11-17T06:22:36.807Z,100.00
2022-11-17T06:25:08.656Z,100.00
2022-11-17T06:27:39.131Z,100.00
2022-11-17T06:30:07.941Z,100.00
2022-11-17T06:32:38.878Z,100.00
2022-11-17T06:35:08.809Z,100.00
2022-11-17T06:37:36.794Z,100.00
2022-11-17T06:40:05.172Z,100.00
2022-11-17T06:42:51.846Z,100.00
2022-11-17T06:45:19.709Z,100.00
2022-11-17T06:47:47.616Z,100.00
2022-11-17T06:50:15.989Z,100.00
2022-11-17T06:52:43.965Z,100.00
2022-11-17T06:55:12.171Z,100.00
2022-11-17T06:57:40.253Z,100.00
2022-11-17T07:00:08.782Z,100.00
2022-11-17T07:02:37.345Z,100.00
2022-11-17T07:05:05.809Z,100.00
2022-11-17T07:07:33.868Z,100.00
2022-11-17T07:10:01.991Z,100.00
2022-11-17T07:12:30.086Z,100.00
2022-11-17T07:14:58.278Z,100.00
2022-11-17T07:17:26.425Z,100.00
2022-11-17T07:19:55.070Z,100.00
2022-11-17T07:22:23.140Z,100.00
2022-11-17T07:24:51.777Z,100.00
2022-11-17T07:27:19.775Z,100.00
2022-11-17T07:29:47.774Z,100.00
2022-11-17T07:32:16.010Z,100.00
2022-11-17T07:34:44.057Z,100.00
2022-11-17T07:37:12.149Z,100.00
2022-11-17T07:39:40.149Z,100.00
2022-11-17T07:42:08.190Z,100.00
2022-11-17T07:44:36.278Z,100.00
2022-11-17T07:47:04.294Z,100.00
2022-11-17T07:49:32.344Z,100.00
2022-11-17T07:52:01.701Z,100.00
2022-11-17T07:54:29.685Z,100.00
2022-11-17T07:56:57.633Z,100.00
2022-11-17T07:59:25.669Z,100.00
2022-11-17T08:01:53.692Z,100.00
2022-11-17T08:04:21.635Z,100.00
2022-11-17T08:06:49.803Z,100.00
2022-11-17T08:09:18.005Z,100.00
2022-11-17T08:11:45.998Z,100.00
2022-11-17T08:14:14.041Z,100.00
2022-11-17T08:16:42.211Z,100.00
2022-11-17T08:19:12.162Z,100.00
2022-11-17T08:21:41.551Z,100.00
2022-11-17T08:24:11.969Z,100.00
2022-11-17T08:26:40.017Z,100.00
2022-11-17T08:29:07.989Z,100.00
2022-11-17T08:31:36.082Z,100.00
2022-11-17T08:34:04.185Z,100.00
2022-11-17T08:36:32.278Z,100.00
2022-11-17T08:39:00.349Z,100.00
2022-11-17T08:41:28.271Z,100.00
2022-11-17T08:43:56.174Z,100.00
2022-11-17T08:46:26.644Z,100.00
2022-11-17T08:48:57.107Z,100.00
2022-11-17T08:51:25.584Z,100.00
2022-11-17T08:53:53.622Z,100.00
2022-11-17T08:56:21.947Z,100.00
2022-11-17T08:58:49.976Z,100.00
2022-11-17T09:01:18.376Z,100.00
2022-11-17T09:03:47.961Z,100.00
2022-11-17T09:06:17.909Z,100.00
2022-11-17T09:08:47.442Z,100.00
2022-11-17T09:11:16.934Z,100.00
2022-11-17T09:13:47.160Z,100.00
2022-11-17T09:16:16.911Z,100.00
2022-11-17T09:18:44.995Z,100.00
2022-11-17T09:21:15.696Z,100.00
2022-11-17T09:23:43.931Z,100.00
2022-11-17T09:26:14.365Z,100.00
2022-11-17T09:28:44.280Z,100.00
2022-11-17T09:31:18.071Z,100.00
2022-11-17T09:33:46.784Z,100.00
2022-11-17T09:36:16.422Z,100.00
2022-11-17T09:38:46.969Z,100.00
2022-11-17T09:41:22.868Z,100.00
2022-11-17T09:44:03.389Z,100.00
2022-11-17T09:46:58.655Z,100.00
2022-11-17T09:49:59.549Z,100.00
2022-11-17T09:52:46.480Z,100.00
2022-11-17T09:55:14.357Z,100.00
2022-11-17T09:57:47.636Z,100.00
2022-11-17T10:00:19.992Z,100.00
2022-11-17T10:02:48.863Z,100.00
2022-11-17T10:05:27.257Z,100.00
2022-11-17T10:08:00.453Z,100.00
2022-11-17T10:10:43.965Z,100.00
2022-11-17T10:13:34.139Z,100.00
2022-11-17T10:16:06.141Z,100.00
2022-11-17T10:18:39.233Z,100.00
2022-11-17T10:21:09.372Z,100.00
2022-11-17T10:23:46.196Z,100.00
2022-11-17T10:26:16.028Z,100.00
2022-11-17T10:28:44.116Z,100.00
2022-11-17T10:31:15.434Z,100.00
2022-11-17T10:33:47.786Z,100.00
2022-11-17T10:36:30.512Z,99.75
2022-11-17T10:39:00.646Z,99.82
2022-11-17T10:41:37.635Z,99.93
2022-11-17T10:44:23.160Z,98.92
2022-11-17T10:47:08.223Z,98.79
2022-11-17T10:49:39.911Z,98.63
2022-11-17T10:52:14.028Z,98.08
2022-11-17T10:54:42.632Z,97.51
2022-11-17T10:57:20.477Z,96.92
2022-11-17T10:59:57.884Z,97.48
2022-11-17T11:02:28.758Z,97.38
2022-11-17T11:05:18.152Z,96.93
2022-11-17T11:08:23.522Z,97.06
2022-11-17T11:11:33.320Z,96.73
2022-11-17T11:14:30.503Z,96.72
2022-11-17T11:16:58.868Z,96.81
2022-11-17T11:19:26.901Z,96.87
2022-11-17T11:22:34.716Z,96.89
2022-11-17T11:25:05.763Z,96.92
2022-11-17T11:27:58.588Z,96.96
2022-11-17T11:30:27.313Z,97.23
2022-11-17T11:33:20.681Z,97.36
2022-11-17T11:36:04.584Z,97.56
2022-11-17T11:38:50.208Z,97.66
2022-11-17T11:41:48.003Z,98.15
2022-11-17T11:44:23.146Z,98.46
2022-11-17T11:47:03.345Z,98.21
2022-11-17T11:49:55.852Z,97.88
2022-11-17T11:52:38.372Z,97.96
2022-11-17T11:55:19.095Z,98.06
2022-11-17T11:58:01.035Z,97.70
2022-11-17T12:00:29.091Z,97.67
2022-11-17T12:03:06.858Z,97.54
2022-11-17T12:06:28.526Z,97.19
2022-11-17T12:09:34.113Z,97.37
2022-11-17T12:12:14.773Z,97.40
2022-11-17T12:15:18.568Z,97.21
2022-11-17T12:17:57.179Z,96.81
2022-11-17T12:20:31.159Z,96.81
2022-11-17T12:23:13.779Z,96.47
2022-11-17T12:25:52.300Z,96.16
2022-11-17T12:28:38.417Z,96.05
2022-11-17T12:31:10.890Z,96.13
2022-11-17T12:33:54.243Z,96.01
2022-11-17T12:36:30.642Z,95.94
2022-11-17T12:39:01.483Z,95.73
2022-11-17T12:41:48.253Z,95.44
2022-11-17T12:44:38.088Z,95.76
2022-11-17T12:47:15.441Z,95.90
2022-11-17T12:50:04.009Z,95.26
2022-11-17T12:53:14.808Z,95.32
2022-11-17T12:55:58.175Z,95.55
2022-11-17T12:58:38.312Z,94.88
2022-11-17T13:01:36.059Z,94.70
2022-11-17T13:04:14.973Z,94.48
2022-11-17T13:07:06.410Z,93.84
2022-11-17T13:09:36.642Z,92.91
2022-11-17T13:12:10.706Z,92.80
2022-11-17T13:14:56.005Z,92.75
2022-11-17T13:17:47.685Z,92.45
2022-11-17T13:20:27.039Z,91.82
2022-11-17T13:23:26.188Z,91.94
2022-11-17T13:26:15.906Z,92.02
2022-11-17T13:28:45.169Z,92.06
2022-11-17T13:31:18.739Z,91.96
2022-11-17T13:34:07.506Z,92.01
2022-11-17T13:36:36.297Z,92.28
2022-11-17T13:39:04.392Z,92.78
2022-11-17T13:41:38.808Z,92.74
2022-11-17T13:44:13.482Z,92.48
2022-11-17T13:46:41.868Z,92.55
2022-11-17T13:49:39.303Z,92.59
2022-11-17T13:52:29.804Z,92.61
2022-11-17T13:55:02.358Z,92.82
2022-11-17T13:57:31.178Z,92.75
2022-11-17T14:00:01.348Z,92.84
2022-11-17T14:02:29.957Z,92.96
2022-11-17T14:05:18.453Z,93.06
2022-11-17T14:07:47.079Z,93.10
2022-11-17T14:10:28.052Z,93.13
2022-11-17T14:13:02.340Z,93.24
2022-11-17T14:15:31.819Z,93.41
2022-11-17T14:18:02.794Z,93.64
2022-11-17T14:20:33.525Z,93.84
2022-11-17T14:23:06.131Z,93.97
2022-11-17T14:25:54.339Z,93.96
2022-11-17T14:28:23.362Z,94.07
2022-11-17T14:30:53.648Z,94.04
2022-11-17T14:33:22.282Z,94.15
2022-11-17T14:35:55.996Z,94.35
2022-11-17T14:38:24.370Z,94.28
2022-11-17T14:40:53.980Z,94.27
2022-11-17T14:43:22.620Z,94.23
2022-11-17T14:45:50.755Z,94.34
2022-11-17T14:48:20.380Z,94.57
2022-11-17T14:50:48.829Z,94.69
2022-11-17T14:53:16.964Z,94.75
2022-11-17T14:55:45.101Z,94.77
2022-11-17T14:58:13.143Z,94.82
2022-11-17T15:00:41.173Z,95.05
2022-11-17T15:03:09.395Z,95.25
2022-11-17T15:05:43.647Z,95.51
2022-11-17T15:08:12.328Z,95.68
2022-11-17T15:10:45.535Z,96.10
2022-11-17T15:13:13.566Z,96.28
2022-11-17T15:15:41.554Z,96.28
2022-11-17T15:18:12.682Z,96.51
2022-11-17T15:20:41.102Z,96.71
2022-11-17T15:23:09.126Z,96.87
2022-11-17T15:25:38.939Z,97.05
2022-11-17T15:28:06.837Z,97.12
2022-11-17T15:30:34.883Z,97.25
2022-11-17T15:33:02.951Z,97.37
2022-11-17T15:35:30.918Z,97.47
2022-11-17T15:37:58.875Z,97.58
2022-11-17T15:40:26.914Z,97.68
2022-11-17T15:42:54.884Z,97.84
2022-11-17T15:45:22.845Z,97.93
2022-11-17T15:47:50.894Z,97.92
2022-11-17T15:50:19.690Z,97.88
2022-11-17T15:53:04.788Z,97.73
2022-11-17T15:55:35.305Z,97.68
2022-11-17T15:58:04.129Z,97.60
2022-11-17T16:00:33.896Z,97.39
2022-11-17T16:03:01.950Z,97.52
2022-11-17T16:05:29.894Z,97.73
2022-11-17T16:07:57.838Z,97.66
2022-11-17T16:10:27.367Z,97.49
2022-11-17T16:12:56.523Z,97.69
2022-11-17T16:15:24.994Z,97.80
2022-11-17T16:17:53.427Z,97.64
2022-11-17T16:20:21.572Z,97.68
2022-11-17T16:22:49.600Z,97.64
2022-11-17T16:25:17.632Z,97.77
2022-11-17T16:27:45.653Z,97.96
2022-11-17T16:30:13.811Z,97.84
2022-11-17T16:32:41.719Z,97.84
2022-11-17T16:35:09.757Z,97.94
2022-11-17T16:37:37.810Z,97.90
2022-11-17T16:40:06.395Z,97.70
2022-11-17T16:42:34.469Z,97.91
2022-11-17T16:45:02.615Z,97.97
2022-11-17T16:47:32.273Z,98.13
2022-11-17T16:50:00.182Z,98.22
2022-11-17T16:52:28.349Z,98.27
2022-11-17T16:55:00.428Z,98.36
2022-11-17T16:57:32.579Z,98.30
2022-11-17T17:00:00.519Z,98.36
2022-11-17T17:02:28.501Z,98.66
2022-11-17T17:04:56.402Z,98.80
2022-11-17T17:07:24.535Z,98.71
2022-11-17T17:09:52.630Z,98.94
2022-11-17T17:12:20.714Z,98.95
2022-11-17T17:14:48.718Z,99.05
2022-11-17T17:17:16.731Z,99.04
2022-11-17T17:19:44.703Z,98.99
2022-11-17T17:22:13.008Z,98.90
2022-11-17T17:24:41.305Z,98.81
2022-11-17T17:27:09.328Z,98.58
2022-11-17T17:29:37.437Z,98.70
2022-11-17T17:32:05.674Z,98.84
2022-11-17T17:34:33.682Z,98.92
2022-11-17T17:37:01.649Z,98.89
2022-11-17T17:39:29.780Z,98.77
2022-11-17T17:41:57.807Z,98.89
2022-11-17T17:44:26.000Z,98.86
2022-11-17T17:46:54.043Z,98.93
2022-11-17T17:49:22.054Z,98.96
2022-11-17T17:51:50.073Z,98.91
2022-11-17T17:54:20.916Z,98.84
2022-11-17T17:56:49.010Z,98.94
2022-11-17T17:59:17.432Z,98.95
2022-11-17T18:01:47.645Z,98.97
2022-11-17T18:04:16.960Z,99.09
2022-11-17T18:06:48.014Z,99.05
2022-11-17T18:09:20.702Z,99.15
2022-11-17T18:11:51.027Z,99.21
2022-11-17T18:14:24.708Z,99.20
2022-11-17T18:16:53.555Z,99.34
2022-11-17T18:19:22.341Z,99.42
2022-11-17T18:21:50.476Z,99.49
2022-11-17T18:24:21.684Z,99.60
2022-11-17T18:26:49.815Z,99.63
2022-11-17T18:29:19.744Z,99.59
2022-11-17T18:31:49.425Z,99.62
2022-11-17T18:34:19.034Z,99.79
2022-11-17T18:36:48.971Z,99.88
2022-11-17T18:39:17.755Z,100.00
2022-11-17T18:41:46.083Z,100.00
2022-11-17T18:44:16.884Z,100.00
2022-11-17T18:46:45.230Z,100.00
2022-11-17T18:49:13.322Z,100.00
2022-11-17T18:51:41.338Z,100.00
2022-11-17T18:54:11.200Z,100.00
2022-11-17T18:56:40.114Z,100.00
2022-11-17T18:59:11.850Z,100.00
2022-11-17T19:01:42.292Z,100.00
2022-11-17T19:04:12.769Z,100.00
2022-11-17T19:06:40.794Z,100.00
2022-11-17T19:09:08.928Z,100.00
2022-11-17T19:11:37.068Z,100.00
2022-11-17T19:14:07.830Z,100.00
2022-11-17T19:16:44.549Z,100.00
2022-11-17T19:19:14.273Z,100.00
2022-11-17T19:21:43.299Z,100.00
2022-11-17T19:24:11.842Z,100.00
2022-11-17T19:26:39.985Z,100.00
2022-11-17T19:29:16.223Z,99.98
2022-11-17T19:31:46.928Z,99.79
2022-11-17T19:34:15.915Z,99.68
2022-11-17T19:36:44.978Z,98.94
2022-11-17T19:39:14.243Z,98.77
2022-11-17T19:41:45.282Z,99.04
2022-11-17T19:44:13.616Z,98.75
2022-11-17T19:46:42.698Z,98.62
2022-11-17T19:49:11.696Z,98.23
2022-11-17T19:51:41.361Z,97.88
2022-11-17T19:54:10.252Z,97.90
2022-11-17T19:56:38.630Z,98.04
2022-11-17T19:59:09.661Z,98.14
2022-11-17T20:01:40.638Z,98.09
2022-11-17T20:04:09.117Z,98.13
2022-11-17T20:06:38.691Z,98.20
2022-11-17T20:09:12.486Z,98.23
2022-11-17T20:11:40.952Z,98.25
2022-11-17T20:14:09.242Z,98.24
2022-11-17T20:16:38.859Z,98.32
2022-11-17T20:19:07.235Z,98.27
2022-11-17T20:21:35.308Z,98.34
2022-11-17T20:24:03.921Z,98.39
2022-11-17T20:26:34.135Z,98.39
2022-11-17T20:29:02.299Z,98.35
2022-11-17T20:31:35.374Z,98.40
2022-11-17T20:34:05.564Z,98.26
2022-11-17T20:36:35.344Z,98.34
2022-11-17T20:39:06.214Z,98.69
2022-11-17T20:41:34.246Z,98.73
2022-11-17T20:44:03.425Z,98.96
2022-11-17T20:46:31.613Z,99.11
2022-11-17T20:48:59.686Z,99.14
2022-11-17T20:51:27.734Z,99.22
2022-11-17T20:53:55.751Z,99.47
2022-11-17T20:56:23.909Z,99.54
2022-11-17T20:58:51.961Z,99.64
2022-11-17T21:01:22.836Z,99.88
2022-11-17T21:03:52.160Z,99.86
2022-11-17T21:06:25.067Z,100.00
2022-11-17T21:08:53.136Z,99.99
2022-11-17T21:11:43.488Z,99.98
2022-11-17T21:14:13.585Z,100.00
2022-11-17T21:16:45.774Z,100.00
2022-11-17T21:23:59.894Z,100.00
2022-11-17T21:26:28.647Z,100.00
2022-11-17T21:29:00.444Z,100.00
2022-11-17T21:31:32.002Z,100.00
2022-11-17T21:34:02.917Z,100.00
2022-11-17T21:36:32.899Z,100.00
2022-11-17T21:39:01.226Z,100.00
2022-11-17T21:42:20.570Z,100.00
2022-11-17T21:44:48.759Z,100.00
2022-11-17T21:47:24.090Z,100.00
2022-11-17T21:49:52.973Z,100.00
2022-11-17T21:57:00.390Z,100.00
2022-11-17T21:59:28.576Z,100.00
2022-11-17T22:01:56.639Z,100.00
2022-11-17T22:04:25.509Z,100.00
2022-11-17T22:06:53.562Z,100.00
2022-11-17T22:09:21.572Z,100.00
2022-11-17T22:11:51.483Z,100.00
2022-11-17T22:14:20.416Z,100.00
2022-11-17T22:16:53.724Z,100.00
2022-11-17T22:19:24.708Z,100.00
2022-11-17T22:21:54.307Z,100.00
2022-11-17T22:24:22.940Z,100.00
2022-11-17T22:26:51.802Z,100.00
2022-11-17T22:29:21.886Z,100.00
2022-11-17T22:31:50.830Z,100.00
2022-11-17T22:34:18.909Z,100.00
2022-11-17T22:36:47.077Z,100.00
2022-11-17T22:39:16.360Z,100.00
2022-11-17T22:41:44.602Z,100.00
2022-11-17T22:44:16.496Z,100.00
2022-11-17T22:46:45.725Z,100.00
2022-11-17T22:49:13.968Z,100.00
2022-11-17T22:52:00.972Z,100.00
2022-11-17T22:54:30.505Z,100.00
2022-11-17T22:56:58.949Z,100.00
2022-11-17T22:59:28.874Z,100.00
2022-11-17T23:01:58.264Z,100.00
2022-11-17T23:04:26.503Z,100.00
2022-11-17T23:06:54.633Z,100.00
2022-11-17T23:09:22.839Z,100.00
2022-11-17T23:11:51.015Z,100.00
2022-11-17T23:14:19.125Z,100.00
2022-11-17T23:16:47.233Z,100.00
2022-11-17T23:19:15.514Z,100.00
2022-11-17T23:21:44.079Z,100.00
2022-11-17T23:24:14.520Z,100.00
2022-11-17T23:26:42.999Z,100.00
2022-11-17T23:29:11.306Z,100.00
2022-11-17T23:31:39.759Z,100.00
2022-11-17T23:34:10.522Z,100.00
2022-11-17T23:36:38.941Z,100.00
2022-11-17T23:39:07.304Z,100.00
2022-11-17T23:41:35.553Z,100.00
2022-11-17T23:44:04.041Z,100.00
2022-11-17T23:46:32.186Z,100.00
2022-11-17T23:49:00.287Z,100.00
2022-11-17T23:51:30.004Z,100.00
2022-11-17T23:54:01.384Z,100.00
2022-11-17T23:56:33.791Z,100.00
2022-11-17T23:59:01.918Z,100.00
